RA48356 ULLI-ULLY

Flight info

Callsign RA48356
Flight time N/A
Altitude 1500
Route ALONG HIGHWAY A
Aircraft EFOX/L-S/L

Departure

Time 2026-04-30 14:16
Airport Pulkovo Airport (ULLI)

Arrival

Time N/A
Airport ULLY
Time Latitude Longitude Altitude Speed Heading
2026-04-30 14:01 59.80534 30.30364 80 ft 0 kts 319°
2026-04-30 14:11 59.80537 30.30359 80 ft 0 kts 317°
2026-04-30 14:11 59.80551 30.30335 80 ft 6 kts 313°
2026-04-30 14:11 59.80530 30.30229 80 ft 9 kts 227°
2026-04-30 14:12 59.80496 30.30222 80 ft 7 kts 139°
2026-04-30 14:12 59.80433 30.30336 80 ft 17 kts 143°
2026-04-30 14:12 59.80329 30.30207 80 ft 18 kts 227°
2026-04-30 14:12 59.80283 30.30105 80 ft 8 kts 230°
2026-04-30 14:13 59.80273 30.30083 80 ft 0 kts 229°
2026-04-30 14:14 59.80271 30.30081 80 ft 2 kts 229°
2026-04-30 14:14 59.80231 30.29985 80 ft 15 kts 226°
2026-04-30 14:15 59.80193 30.29801 80 ft 12 kts 277°
2026-04-30 14:15 59.80222 30.29587 80 ft 29 kts 286°
2026-04-30 14:15 59.80318 30.28919 130 ft 62 kts 286°
2026-04-30 14:15 59.80428 30.28084 323 ft 64 kts 287°
2026-04-30 14:16 59.80517 30.27144 545 ft 75 kts 279°
2026-04-30 14:16 59.80602 30.26027 745 ft 86 kts 282°
2026-04-30 14:16 59.80747 30.24930 909 ft 77 kts 287°
2026-04-30 14:16 59.80893 30.23938 1001 ft 76 kts 288°
2026-04-30 14:17 59.81021 30.22936 1110 ft 74 kts 285°
2026-04-30 14:17 59.81124 30.21956 1237 ft 70 kts 280°
2026-04-30 14:17 59.81176 30.21129 1700 ft 54 kts 276°
2026-04-30 14:17 59.81184 30.20481 1778 ft 41 kts 278°
2026-04-30 14:18 59.81200 30.19950 1649 ft 36 kts 282°
2026-04-30 14:18 59.81211 30.19478 1443 ft 52 kts 271°
2026-04-30 14:18 59.80521 30.18390 960 ft 55 kts 245°
2026-04-30 14:19 59.80533 30.17504 865 ft 52 kts 22°
2026-04-30 14:19 59.80736 30.18188 846 ft 55 kts 53°
2026-04-30 14:19 59.80886 30.18795 1051 ft 49 kts 77°
2026-04-30 14:20 59.80595 30.18647 734 ft 62 kts 249°
2026-04-30 14:20 59.80385 30.17936 706 ft 60 kts 246°
2026-04-30 14:20 59.80037 30.16434 1087 ft 66 kts 254°
2026-04-30 14:21 59.80036 30.15524 1310 ft 70 kts 293°
2026-04-30 14:21 59.80182 30.14987 1410 ft 76 kts 299°
2026-04-30 14:21 59.80033 30.12683 974 ft 105 kts 245°
2026-04-30 14:22 59.80270 30.11615 1100 ft 91 kts 319°
2026-04-30 14:22 59.81011 30.10067 1302 ft 87 kts 285°
2026-04-30 14:22 59.81181 30.08976 1411 ft 79 kts 291°
2026-04-30 14:23 59.81123 30.09593 1741 ft 81 kts 168°
2026-04-30 14:23 59.81284 30.07797 1804 ft 100 kts 293°
2026-04-30 14:24 59.81675 30.05059 1887 ft 98 kts 277°
2026-04-30 14:24 59.81774 30.03670 1727 ft 109 kts 284°
2026-04-30 14:25 59.82078 30.00704 1608 ft 115 kts 281°
2026-04-30 14:25 59.82016 29.97632 1546 ft 111 kts 267°
2026-04-30 14:26 59.81891 29.94780 1515 ft 93 kts 267°
2026-04-30 14:26 59.81831 29.93423 1516 ft 101 kts 268°
2026-04-30 14:26 59.81691 29.90920 1557 ft 87 kts 274°
2026-04-30 14:27 59.81653 29.89591 1543 ft 103 kts 268°
2026-04-30 14:27 59.81551 29.88197 1522 ft 88 kts 272°
2026-04-30 14:27 59.81554 29.87049 1499 ft 88 kts 271°
2026-04-30 14:28 59.81753 29.84555 1506 ft 102 kts 296°
2026-04-30 14:28 59.82100 29.83415 1119 ft 128 kts 341°
2026-04-30 14:28 59.82741 29.82743 1299 ft 85 kts 331°
2026-04-30 14:28 59.83292 29.82359 1402 ft 91 kts 335°
2026-04-30 14:29 59.84432 29.81190 1651 ft 95 kts 311°
2026-04-30 14:29 59.85197 29.79632 1873 ft 97 kts 332°
2026-04-30 14:30 59.86826 29.76699 1265 ft 75 kts 274°
2026-04-30 14:31 59.87175 29.74491 1590 ft 92 kts 287°
2026-04-30 14:31 59.87677 29.72078 1855 ft 96 kts 295°
2026-04-30 14:31 59.87988 29.70774 1775 ft 107 kts 292°
2026-04-30 14:32 59.88733 29.68311 1812 ft 107 kts 317°
2026-04-30 14:32 59.89378 29.67536 1806 ft 104 kts 332°
2026-04-30 14:32 59.89905 29.67168 1777 ft 61 kts 338°
2026-04-30 14:33 59.90284 29.67150 1671 ft 54 kts
2026-04-30 14:33 59.91195 29.67167 1573 ft 88 kts 349°
2026-04-30 14:33 59.91869 29.67255 1612 ft 106 kts
2026-04-30 14:34 59.92650 29.67497 1544 ft 115 kts
2026-04-30 14:34 59.93421 29.67869 1608 ft 110 kts
2026-04-30 14:34 59.94134 29.68329 1656 ft 107 kts 12°
2026-04-30 14:34 59.94846 29.68789 1662 ft 107 kts 11°
2026-04-30 14:35 59.96021 29.69531 1685 ft 105 kts
2026-04-30 14:35 59.96986 29.70009 1698 ft 105 kts
2026-04-30 14:35 59.97699 29.70324 1697 ft 105 kts
2026-04-30 14:36 59.98425 29.70541 1704 ft 103 kts 358°
2026-04-30 14:36 59.99094 29.70249 1656 ft 104 kts 328°
2026-04-30 14:36 59.99625 29.69423 1765 ft 94 kts 320°
2026-04-30 14:36 60.00150 29.68837 1575 ft 94 kts 324°
2026-04-30 14:37 60.00649 29.68146 1361 ft 88 kts 338°
2026-04-30 14:37 60.01225 29.67843 958 ft 88 kts 344°
2026-04-30 14:37 60.01809 29.68216 431 ft 103 kts 50°
2026-04-30 14:37 60.01583 29.69265 206 ft 83 kts 146°
2026-04-30 14:38 60.01455 29.70239 40 ft 71 kts 92°
2026-04-30 14:38 60.01423 29.70866 32 ft 15 kts 104°
2026-04-30 14:38 60.01430 29.70895 32 ft 0 kts 339°
2026-04-30 14:38 60.01454 29.70771 32 ft 21 kts 271°
2026-04-30 14:39 60.01538 29.70688 32 ft 13 kts 309°
2026-04-30 14:39 60.01541 29.70668 33 ft 8 kts 25°
2026-04-30 14:39 60.01545 29.70696 32 ft 0 kts 174°